Copper Mountain, Colorado
Current Conditions -  °F | °C
As of 3:15 PM on Wednesday 28 Jan 2015 (Local Time) from KCCU Reporting Station
Overcast Overcast  
Wind Chill: 16°   Ceiling: 2100
Heat Index: 28°   Visibility: 10mi
Dew Point: 14°   Wind: 18mph
Humidity: 55%   Direction: 280°W
Pressure: 30.31"   Gusts: NA
Location:  39.564°N, 106.162°W
Report Text: KCCU 282215Z AUTO 28016KT 10SM BKN021 OVC029 M02/M10 A3031 RMK AO2
Loading
Personal Weather Stations






























Interactive Weather Map New forecast layout! Learn more

10-Day Weather Forecast

Advertisements
Track Severe Weather on mobile